sensor_id;sensor_type;location;lat;lon;timestamp;P1;durP1;ratioP1;P2;durP2;ratioP2
74543;SDS011;63016;55.030;38.710;2024-02-26T00:01:23;4.65;;;2.00;;
74543;SDS011;63016;55.030;38.710;2024-02-26T00:03:48;6.22;;;1.92;;
74543;SDS011;63016;55.030;38.710;2024-02-26T00:06:14;5.25;;;2.00;;
74543;SDS011;63016;55.030;38.710;2024-02-26T00:08:39;7.95;;;2.20;;
74543;SDS011;63016;55.030;38.710;2024-02-26T00:11:05;11.50;;;2.00;;
74543;SDS011;63016;55.030;38.710;2024-02-26T00:13:30;4.78;;;1.80;;
74543;SDS011;63016;55.030;38.710;2024-02-26T00:15:56;8.25;;;2.20;;
74543;SDS011;63016;55.030;38.710;2024-02-26T00:18:21;4.75;;;1.90;;
74543;SDS011;63016;55.030;38.710;2024-02-26T00:20:47;5.07;;;1.80;;
74543;SDS011;63016;55.030;38.710;2024-02-26T00:23:14;5.07;;;1.55;;
74543;SDS011;63016;55.030;38.710;2024-02-26T00:25:40;7.40;;;1.90;;
74543;SDS011;63016;55.030;38.710;2024-02-26T00:28:07;8.70;;;2.20;;
74543;SDS011;63016;55.030;38.710;2024-02-26T00:30:33;7.07;;;2.00;;
74543;SDS011;63016;55.030;38.710;2024-02-26T00:32:59;5.90;;;2.45;;
74543;SDS011;63016;55.030;38.710;2024-02-26T00:35:24;7.55;;;2.40;;
74543;SDS011;63016;55.030;38.710;2024-02-26T00:37:50;4.57;;;1.58;;
74543;SDS011;63016;55.030;38.710;2024-02-26T00:40:15;8.93;;;2.10;;
74543;SDS011;63016;55.030;38.710;2024-02-26T00:42:41;6.43;;;1.85;;
74543;SDS011;63016;55.030;38.710;2024-02-26T00:45:11;9.82;;;2.00;;
74543;SDS011;63016;55.030;38.710;2024-02-26T00:47:39;6.78;;;1.92;;
74543;SDS011;63016;55.030;38.710;2024-02-26T00:50:09;5.90;;;1.83;;
74543;SDS011;63016;55.030;38.710;2024-02-26T00:52:35;5.07;;;1.80;;
74543;SDS011;63016;55.030;38.710;2024-02-26T00:55:01;9.20;;;2.00;;
74543;SDS011;63016;55.030;38.710;2024-02-26T00:57:27;8.68;;;1.80;;
74543;SDS011;63016;55.030;38.710;2024-02-26T00:59:53;5.63;;;1.90;;
74543;SDS011;63016;55.030;38.710;2024-02-26T01:02:20;5.38;;;2.00;;
74543;SDS011;63016;55.030;38.710;2024-02-26T01:04:47;8.10;;;1.67;;
74543;SDS011;63016;55.030;38.710;2024-02-26T01:07:12;7.15;;;2.08;;
74543;SDS011;63016;55.030;38.710;2024-02-26T01:09:38;6.03;;;2.45;;
74543;SDS011;63016;55.030;38.710;2024-02-26T01:12:03;7.72;;;2.15;;
74543;SDS011;63016;55.030;38.710;2024-02-26T01:14:29;6.78;;;1.88;;
74543;SDS011;63016;55.030;38.710;2024-02-26T01:16:55;6.13;;;2.08;;
74543;SDS011;63016;55.030;38.710;2024-02-26T01:19:20;4.38;;;1.60;;
74543;SDS011;63016;55.030;38.710;2024-02-26T01:21:46;4.55;;;1.70;;
74543;SDS011;63016;55.030;38.710;2024-02-26T01:24:11;3.63;;;1.70;;
74543;SDS011;63016;55.030;38.710;2024-02-26T01:26:37;8.35;;;2.20;;
74543;SDS011;63016;55.030;38.710;2024-02-26T01:29:03;10.75;;;2.70;;
74543;SDS011;63016;55.030;38.710;2024-02-26T01:31:28;5.38;;;1.77;;
74543;SDS011;63016;55.030;38.710;2024-02-26T01:33:54;9.48;;;1.90;;
74543;SDS011;63016;55.030;38.710;2024-02-26T01:36:19;6.63;;;1.95;;
74543;SDS011;63016;55.030;38.710;2024-02-26T01:38:46;6.13;;;2.47;;
74543;SDS011;63016;55.030;38.710;2024-02-26T01:41:13;4.93;;;1.77;;
74543;SDS011;63016;55.030;38.710;2024-02-26T01:43:39;4.20;;;1.83;;
74543;SDS011;63016;55.030;38.710;2024-02-26T01:46:04;6.47;;;2.00;;
74543;SDS011;63016;55.030;38.710;2024-02-26T01:48:30;7.35;;;2.33;;
74543;SDS011;63016;55.030;38.710;2024-02-26T01:50:55;3.97;;;1.60;;
74543;SDS011;63016;55.030;38.710;2024-02-26T01:53:21;4.90;;;2.08;;
74543;SDS011;63016;55.030;38.710;2024-02-26T01:55:48;6.93;;;2.40;;
74543;SDS011;63016;55.030;38.710;2024-02-26T01:58:13;7.53;;;3.15;;
74543;SDS011;63016;55.030;38.710;2024-02-26T02:00:39;7.05;;;1.98;;
74543;SDS011;63016;55.030;38.710;2024-02-26T02:03:05;4.60;;;1.85;;
74543;SDS011;63016;55.030;38.710;2024-02-26T02:05:31;7.32;;;2.00;;
74543;SDS011;63016;55.030;38.710;2024-02-26T02:07:58;4.57;;;2.05;;
74543;SDS011;63016;55.030;38.710;2024-02-26T02:10:24;5.88;;;1.65;;
74543;SDS011;63016;55.030;38.710;2024-02-26T02:12:51;7.78;;;1.90;;
74543;SDS011;63016;55.030;38.710;2024-02-26T02:15:17;5.85;;;1.90;;
74543;SDS011;63016;55.030;38.710;2024-02-26T02:17:43;3.50;;;1.65;;
74543;SDS011;63016;55.030;38.710;2024-02-26T02:20:09;10.18;;;2.33;;
74543;SDS011;63016;55.030;38.710;2024-02-26T02:22:40;3.28;;;1.50;;
74543;SDS011;63016;55.030;38.710;2024-02-26T02:25:05;7.18;;;1.95;;
74543;SDS011;63016;55.030;38.710;2024-02-26T02:27:31;6.50;;;1.92;;
74543;SDS011;63016;55.030;38.710;2024-02-26T02:29:57;8.63;;;1.70;;
74543;SDS011;63016;55.030;38.710;2024-02-26T02:32:23;5.05;;;2.00;;
74543;SDS011;63016;55.030;38.710;2024-02-26T02:34:50;5.68;;;1.70;;
74543;SDS011;63016;55.030;38.710;2024-02-26T02:37:16;5.63;;;1.73;;
74543;SDS011;63016;55.030;38.710;2024-02-26T02:39:41;4.22;;;1.55;;
74543;SDS011;63016;55.030;38.710;2024-02-26T02:42:08;3.95;;;1.48;;
74543;SDS011;63016;55.030;38.710;2024-02-26T02:44:34;5.05;;;1.83;;
74543;SDS011;63016;55.030;38.710;2024-02-26T02:46:59;3.63;;;1.92;;
74543;SDS011;63016;55.030;38.710;2024-02-26T02:49:25;6.82;;;2.10;;
74543;SDS011;63016;55.030;38.710;2024-02-26T02:51:51;3.92;;;1.40;;
74543;SDS011;63016;55.030;38.710;2024-02-26T02:54:19;5.28;;;1.83;;
74543;SDS011;63016;55.030;38.710;2024-02-26T02:56:45;3.38;;;1.35;;
74543;SDS011;63016;55.030;38.710;2024-02-26T02:59:10;5.28;;;1.73;;
74543;SDS011;63016;55.030;38.710;2024-02-26T03:01:36;5.88;;;1.98;;
74543;SDS011;63016;55.030;38.710;2024-02-26T03:04:01;4.07;;;1.60;;
74543;SDS011;63016;55.030;38.710;2024-02-26T03:06:27;4.22;;;1.90;;
74543;SDS011;63016;55.030;38.710;2024-02-26T03:08:53;5.38;;;1.88;;
74543;SDS011;63016;55.030;38.710;2024-02-26T03:11:20;5.43;;;1.60;;
74543;SDS011;63016;55.030;38.710;2024-02-26T03:13:45;4.05;;;1.50;;
74543;SDS011;63016;55.030;38.710;2024-02-26T03:16:11;5.88;;;1.50;;
74543;SDS011;63016;55.030;38.710;2024-02-26T03:18:40;4.82;;;1.40;;
74543;SDS011;63016;55.030;38.710;2024-02-26T03:21:06;5.13;;;1.40;;
74543;SDS011;63016;55.030;38.710;2024-02-26T03:23:32;4.72;;;1.67;;
74543;SDS011;63016;55.030;38.710;2024-02-26T03:26:01;5.53;;;1.60;;
74543;SDS011;63016;55.030;38.710;2024-02-26T03:28:28;3.83;;;1.75;;
74543;SDS011;63016;55.030;38.710;2024-02-26T03:30:54;5.35;;;1.80;;
74543;SDS011;63016;55.030;38.710;2024-02-26T03:33:20;6.45;;;1.50;;
74543;SDS011;63016;55.030;38.710;2024-02-26T03:35:45;4.32;;;1.63;;
74543;SDS011;63016;55.030;38.710;2024-02-26T03:38:11;4.13;;;1.58;;
74543;SDS011;63016;55.030;38.710;2024-02-26T03:40:36;3.25;;;1.40;;
74543;SDS011;63016;55.030;38.710;2024-02-26T03:43:02;7.22;;;1.65;;
74543;SDS011;63016;55.030;38.710;2024-02-26T03:45:29;7.25;;;1.92;;
74543;SDS011;63016;55.030;38.710;2024-02-26T03:47:55;7.75;;;1.52;;
74543;SDS011;63016;55.030;38.710;2024-02-26T03:50:20;4.80;;;1.67;;
74543;SDS011;63016;55.030;38.710;2024-02-26T03:52:46;4.35;;;1.60;;
74543;SDS011;63016;55.030;38.710;2024-02-26T03:55:11;4.60;;;1.88;;
74543;SDS011;63016;55.030;38.710;2024-02-26T03:57:37;5.07;;;1.98;;
74543;SDS011;63016;55.030;38.710;2024-02-26T04:00:02;5.28;;;1.65;;
74543;SDS011;63016;55.030;38.710;2024-02-26T04:02:28;4.68;;;1.67;;
74543;SDS011;63016;55.030;38.710;2024-02-26T04:04:54;7.13;;;1.90;;
74543;SDS011;63016;55.030;38.710;2024-02-26T04:07:19;4.15;;;1.58;;
74543;SDS011;63016;55.030;38.710;2024-02-26T04:09:45;5.70;;;1.50;;
74543;SDS011;63016;55.030;38.710;2024-02-26T04:12:10;4.80;;;1.90;;
74543;SDS011;63016;55.030;38.710;2024-02-26T04:14:36;6.47;;;2.00;;
74543;SDS011;63016;55.030;38.710;2024-02-26T04:17:02;5.45;;;1.70;;
74543;SDS011;63016;55.030;38.710;2024-02-26T04:19:28;7.60;;;1.65;;
74543;SDS011;63016;55.030;38.710;2024-02-26T04:21:54;7.18;;;1.85;;
74543;SDS011;63016;55.030;38.710;2024-02-26T04:24:19;6.03;;;2.00;;
74543;SDS011;63016;55.030;38.710;2024-02-26T04:26:45;7.30;;;2.13;;
74543;SDS011;63016;55.030;38.710;2024-02-26T04:29:10;5.25;;;1.65;;
74543;SDS011;63016;55.030;38.710;2024-02-26T04:31:37;3.53;;;1.42;;
74543;SDS011;63016;55.030;38.710;2024-02-26T04:34:04;4.28;;;1.75;;
74543;SDS011;63016;55.030;38.710;2024-02-26T04:36:29;7.32;;;1.90;;
74543;SDS011;63016;55.030;38.710;2024-02-26T04:38:55;8.55;;;1.92;;
74543;SDS011;63016;55.030;38.710;2024-02-26T04:41:21;4.35;;;1.60;;
74543;SDS011;63016;55.030;38.710;2024-02-26T04:43:46;10.88;;;1.60;;
74543;SDS011;63016;55.030;38.710;2024-02-26T04:46:12;3.85;;;1.60;;
74543;SDS011;63016;55.030;38.710;2024-02-26T04:48:38;4.20;;;2.10;;
74543;SDS011;63016;55.030;38.710;2024-02-26T04:51:03;9.77;;;2.03;;
74543;SDS011;63016;55.030;38.710;2024-02-26T04:53:29;6.85;;;1.77;;
74543;SDS011;63016;55.030;38.710;2024-02-26T04:55:55;5.57;;;1.80;;
74543;SDS011;63016;55.030;38.710;2024-02-26T04:58:21;4.15;;;1.90;;
74543;SDS011;63016;55.030;38.710;2024-02-26T05:00:46;6.82;;;1.90;;
74543;SDS011;63016;55.030;38.710;2024-02-26T05:03:12;6.63;;;2.20;;
74543;SDS011;63016;55.030;38.710;2024-02-26T05:05:41;10.30;;;2.35;;
74543;SDS011;63016;55.030;38.710;2024-02-26T05:08:09;4.72;;;1.67;;
74543;SDS011;63016;55.030;38.710;2024-02-26T05:10:36;8.07;;;2.33;;
74543;SDS011;63016;55.030;38.710;2024-02-26T05:13:05;4.15;;;1.73;;
74543;SDS011;63016;55.030;38.710;2024-02-26T05:15:31;5.30;;;1.70;;
74543;SDS011;63016;55.030;38.710;2024-02-26T05:17:57;5.38;;;1.98;;
74543;SDS011;63016;55.030;38.710;2024-02-26T05:20:23;11.40;;;2.35;;
74543;SDS011;63016;55.030;38.710;2024-02-26T05:22:49;6.88;;;2.15;;
74543;SDS011;63016;55.030;38.710;2024-02-26T05:25:15;5.45;;;2.50;;
74543;SDS011;63016;55.030;38.710;2024-02-26T05:27:41;9.98;;;2.15;;
74543;SDS011;63016;55.030;38.710;2024-02-26T05:30:08;6.13;;;2.45;;
74543;SDS011;63016;55.030;38.710;2024-02-26T05:32:34;4.60;;;2.30;;
74543;SDS011;63016;55.030;38.710;2024-02-26T05:35:00;6.32;;;2.28;;
74543;SDS011;63016;55.030;38.710;2024-02-26T05:37:28;7.65;;;2.08;;
74543;SDS011;63016;55.030;38.710;2024-02-26T05:39:53;6.63;;;2.47;;
74543;SDS011;63016;55.030;38.710;2024-02-26T05:42:19;11.70;;;2.40;;
74543;SDS011;63016;55.030;38.710;2024-02-26T05:44:44;5.80;;;2.10;;
74543;SDS011;63016;55.030;38.710;2024-02-26T05:47:10;5.05;;;2.22;;
74543;SDS011;63016;55.030;38.710;2024-02-26T05:49:35;5.70;;;2.13;;
74543;SDS011;63016;55.030;38.710;2024-02-26T05:52:01;4.38;;;1.85;;
74543;SDS011;63016;55.030;38.710;2024-02-26T05:54:27;5.22;;;2.22;;
74543;SDS011;63016;55.030;38.710;2024-02-26T05:56:52;7.95;;;2.10;;
74543;SDS011;63016;55.030;38.710;2024-02-26T05:59:18;7.55;;;2.78;;
74543;SDS011;63016;55.030;38.710;2024-02-26T06:01:43;7.63;;;2.45;;
74543;SDS011;63016;55.030;38.710;2024-02-26T06:04:09;6.03;;;2.45;;
74543;SDS011;63016;55.030;38.710;2024-02-26T06:06:34;6.90;;;2.15;;
74543;SDS011;63016;55.030;38.710;2024-02-26T06:09:00;5.45;;;1.92;;
74543;SDS011;63016;55.030;38.710;2024-02-26T06:11:25;9.32;;;2.42;;
74543;SDS011;63016;55.030;38.710;2024-02-26T06:13:51;5.57;;;2.08;;
74543;SDS011;63016;55.030;38.710;2024-02-26T06:16:16;6.32;;;2.50;;
74543;SDS011;63016;55.030;38.710;2024-02-26T06:18:42;8.90;;;2.22;;
74543;SDS011;63016;55.030;38.710;2024-02-26T06:21:10;6.47;;;2.63;;
74543;SDS011;63016;55.030;38.710;2024-02-26T06:23:36;7.65;;;2.45;;
74543;SDS011;63016;55.030;38.710;2024-02-26T06:26:03;7.63;;;2.50;;
74543;SDS011;63016;55.030;38.710;2024-02-26T06:28:28;10.50;;;2.58;;
74543;SDS011;63016;55.030;38.710;2024-02-26T06:30:57;5.85;;;2.20;;
74543;SDS011;63016;55.030;38.710;2024-02-26T06:33:22;8.02;;;2.33;;
74543;SDS011;63016;55.030;38.710;2024-02-26T06:35:48;7.55;;;2.75;;
74543;SDS011;63016;55.030;38.710;2024-02-26T06:38:13;4.95;;;2.40;;
74543;SDS011;63016;55.030;38.710;2024-02-26T06:40:39;5.55;;;2.70;;
74543;SDS011;63016;55.030;38.710;2024-02-26T06:43:05;13.38;;;2.17;;
74543;SDS011;63016;55.030;38.710;2024-02-26T06:45:31;7.03;;;2.72;;
74543;SDS011;63016;55.030;38.710;2024-02-26T06:47:56;7.45;;;2.58;;
74543;SDS011;63016;55.030;38.710;2024-02-26T06:50:22;8.60;;;1.90;;
74543;SDS011;63016;55.030;38.710;2024-02-26T06:52:47;8.73;;;2.97;;
74543;SDS011;63016;55.030;38.710;2024-02-26T06:55:13;7.03;;;2.58;;
74543;SDS011;63016;55.030;38.710;2024-02-26T06:57:39;8.38;;;2.80;;
74543;SDS011;63016;55.030;38.710;2024-02-26T07:00:04;5.00;;;2.13;;
74543;SDS011;63016;55.030;38.710;2024-02-26T07:02:30;11.63;;;2.75;;
74543;SDS011;63016;55.030;38.710;2024-02-26T07:04:56;11.30;;;3.00;;
74543;SDS011;63016;55.030;38.710;2024-02-26T07:07:23;8.10;;;2.63;;
74543;SDS011;63016;55.030;38.710;2024-02-26T07:09:49;13.98;;;2.85;;
74543;SDS011;63016;55.030;38.710;2024-02-26T07:12:15;7.32;;;2.47;;
74543;SDS011;63016;55.030;38.710;2024-02-26T07:14:41;11.05;;;3.00;;
74543;SDS011;63016;55.030;38.710;2024-02-26T07:17:07;6.32;;;2.20;;
74543;SDS011;63016;55.030;38.710;2024-02-26T07:19:33;11.20;;;3.03;;
74543;SDS011;63016;55.030;38.710;2024-02-26T07:21:59;9.07;;;2.47;;
74543;SDS011;63016;55.030;38.710;2024-02-26T07:24:26;9.02;;;3.13;;
74543;SDS011;63016;55.030;38.710;2024-02-26T07:26:53;12.70;;;2.97;;
74543;SDS011;63016;55.030;38.710;2024-02-26T07:29:20;10.25;;;2.75;;
74543;SDS011;63016;55.030;38.710;2024-02-26T07:31:46;12.93;;;2.33;;
74543;SDS011;63016;55.030;38.710;2024-02-26T07:34:12;7.57;;;2.90;;
74543;SDS011;63016;55.030;38.710;2024-02-26T07:36:38;12.43;;;2.78;;
74543;SDS011;63016;55.030;38.710;2024-02-26T07:39:04;8.20;;;2.55;;
74543;SDS011;63016;55.030;38.710;2024-02-26T07:41:30;7.90;;;2.83;;
74543;SDS011;63016;55.030;38.710;2024-02-26T07:43:55;12.38;;;4.30;;
74543;SDS011;63016;55.030;38.710;2024-02-26T07:46:21;14.93;;;3.30;;
74543;SDS011;63016;55.030;38.710;2024-02-26T07:48:47;6.45;;;2.75;;
74543;SDS011;63016;55.030;38.710;2024-02-26T07:51:13;13.07;;;3.58;;
74543;SDS011;63016;55.030;38.710;2024-02-26T07:53:42;27.38;;;7.35;;
74543;SDS011;63016;55.030;38.710;2024-02-26T07:56:08;10.40;;;3.72;;
74543;SDS011;63016;55.030;38.710;2024-02-26T07:58:34;6.53;;;3.13;;
74543;SDS011;63016;55.030;38.710;2024-02-26T08:01:00;9.23;;;3.20;;
74543;SDS011;63016;55.030;38.710;2024-02-26T08:03:26;10.60;;;3.22;;
74543;SDS011;63016;55.030;38.710;2024-02-26T08:05:51;7.22;;;2.83;;
74543;SDS011;63016;55.030;38.710;2024-02-26T08:08:17;7.78;;;2.78;;
74543;SDS011;63016;55.030;38.710;2024-02-26T08:10:42;13.57;;;3.83;;
74543;SDS011;63016;55.030;38.710;2024-02-26T08:13:08;10.85;;;3.17;;
74543;SDS011;63016;55.030;38.710;2024-02-26T08:15:34;9.75;;;3.17;;
74543;SDS011;63016;55.030;38.710;2024-02-26T08:18:02;10.35;;;2.75;;
74543;SDS011;63016;55.030;38.710;2024-02-26T08:20:28;12.55;;;3.10;;
74543;SDS011;63016;55.030;38.710;2024-02-26T08:22:55;9.52;;;2.90;;
74543;SDS011;63016;55.030;38.710;2024-02-26T08:25:21;8.85;;;2.90;;
74543;SDS011;63016;55.030;38.710;2024-02-26T08:27:46;7.13;;;2.90;;
74543;SDS011;63016;55.030;38.710;2024-02-26T08:30:13;11.07;;;3.13;;
74543;SDS011;63016;55.030;38.710;2024-02-26T08:32:42;8.57;;;3.05;;
74543;SDS011;63016;55.030;38.710;2024-02-26T08:35:10;9.52;;;2.70;;
74543;SDS011;63016;55.030;38.710;2024-02-26T08:37:36;8.60;;;2.58;;
74543;SDS011;63016;55.030;38.710;2024-02-26T08:40:01;7.80;;;3.20;;
74543;SDS011;63016;55.030;38.710;2024-02-26T08:42:29;7.55;;;3.08;;
74543;SDS011;63016;55.030;38.710;2024-02-26T08:44:54;8.80;;;3.28;;
74543;SDS011;63016;55.030;38.710;2024-02-26T08:47:20;7.05;;;2.80;;
74543;SDS011;63016;55.030;38.710;2024-02-26T08:49:45;12.63;;;3.20;;
74543;SDS011;63016;55.030;38.710;2024-02-26T08:52:11;8.75;;;3.22;;
74543;SDS011;63016;55.030;38.710;2024-02-26T08:54:37;7.03;;;3.10;;
74543;SDS011;63016;55.030;38.710;2024-02-26T08:57:03;8.45;;;3.03;;
74543;SDS011;63016;55.030;38.710;2024-02-26T08:59:29;12.95;;;3.35;;
74543;SDS011;63016;55.030;38.710;2024-02-26T09:01:54;5.65;;;2.63;;
74543;SDS011;63016;55.030;38.710;2024-02-26T09:04:20;9.05;;;3.15;;
74543;SDS011;63016;55.030;38.710;2024-02-26T09:06:46;7.13;;;2.70;;
74543;SDS011;63016;55.030;38.710;2024-02-26T09:09:12;11.90;;;2.95;;
74543;SDS011;63016;55.030;38.710;2024-02-26T09:11:37;18.55;;;4.05;;
74543;SDS011;63016;55.030;38.710;2024-02-26T09:14:03;10.93;;;3.20;;
74543;SDS011;63016;55.030;38.710;2024-02-26T09:16:29;13.48;;;3.22;;
74543;SDS011;63016;55.030;38.710;2024-02-26T09:18:55;11.20;;;3.00;;
74543;SDS011;63016;55.030;38.710;2024-02-26T09:21:21;9.02;;;2.88;;
74543;SDS011;63016;55.030;38.710;2024-02-26T09:23:51;6.63;;;3.05;;
74543;SDS011;63016;55.030;38.710;2024-02-26T09:26:17;6.93;;;2.63;;
74543;SDS011;63016;55.030;38.710;2024-02-26T09:28:44;9.02;;;2.80;;
74543;SDS011;63016;55.030;38.710;2024-02-26T09:31:09;9.48;;;3.20;;
74543;SDS011;63016;55.030;38.710;2024-02-26T09:33:35;8.82;;;2.90;;
74543;SDS011;63016;55.030;38.710;2024-02-26T09:36:01;8.20;;;3.03;;
74543;SDS011;63016;55.030;38.710;2024-02-26T09:38:27;8.55;;;2.97;;
74543;SDS011;63016;55.030;38.710;2024-02-26T09:40:53;7.85;;;2.88;;
74543;SDS011;63016;55.030;38.710;2024-02-26T09:43:21;8.68;;;2.92;;
74543;SDS011;63016;55.030;38.710;2024-02-26T09:45:50;11.75;;;3.63;;
74543;SDS011;63016;55.030;38.710;2024-02-26T09:48:18;7.57;;;3.22;;
74543;SDS011;63016;55.030;38.710;2024-02-26T09:50:45;6.22;;;2.75;;
74543;SDS011;63016;55.030;38.710;2024-02-26T09:53:12;5.97;;;3.00;;
74543;SDS011;63016;55.030;38.710;2024-02-26T09:55:38;7.57;;;2.20;;
74543;SDS011;63016;55.030;38.710;2024-02-26T09:58:04;8.05;;;2.83;;
74543;SDS011;63016;55.030;38.710;2024-02-26T10:00:31;6.00;;;2.70;;
74543;SDS011;63016;55.030;38.710;2024-02-26T10:03:02;6.53;;;2.70;;
74543;SDS011;63016;55.030;38.710;2024-02-26T10:05:29;7.55;;;2.60;;
74543;SDS011;63016;55.030;38.710;2024-02-26T10:07:57;7.05;;;2.47;;
74543;SDS011;63016;55.030;38.710;2024-02-26T10:10:23;7.13;;;2.83;;
74543;SDS011;63016;55.030;38.710;2024-02-26T10:12:49;6.40;;;2.60;;
74543;SDS011;63016;55.030;38.710;2024-02-26T10:15:15;8.45;;;2.60;;
74543;SDS011;63016;55.030;38.710;2024-02-26T10:17:41;7.85;;;2.83;;
74543;SDS011;63016;55.030;38.710;2024-02-26T10:20:16;9.52;;;2.60;;
74543;SDS011;63016;55.030;38.710;2024-02-26T10:22:43;6.95;;;2.45;;
74543;SDS011;63016;55.030;38.710;2024-02-26T10:25:09;5.95;;;2.33;;
74543;SDS011;63016;55.030;38.710;2024-02-26T10:27:35;7.80;;;2.45;;
74543;SDS011;63016;55.030;38.710;2024-02-26T10:30:04;4.82;;;2.13;;
74543;SDS011;63016;55.030;38.710;2024-02-26T10:32:51;9.80;;;2.00;;
74543;SDS011;63016;55.030;38.710;2024-02-26T10:35:17;6.50;;;2.35;;
74543;SDS011;63016;55.030;38.710;2024-02-26T10:37:46;5.35;;;2.60;;
74543;SDS011;63016;55.030;38.710;2024-02-26T10:40:12;7.18;;;1.90;;
74543;SDS011;63016;55.030;38.710;2024-02-26T10:42:39;6.30;;;2.30;;
74543;SDS011;63016;55.030;38.710;2024-02-26T10:45:06;9.23;;;2.58;;
74543;SDS011;63016;55.030;38.710;2024-02-26T10:47:32;6.95;;;2.35;;
74543;SDS011;63016;55.030;38.710;2024-02-26T10:49:59;9.30;;;2.33;;
74543;SDS011;63016;55.030;38.710;2024-02-26T10:52:26;5.45;;;2.65;;
74543;SDS011;63016;55.030;38.710;2024-02-26T10:54:54;7.60;;;2.20;;
74543;SDS011;63016;55.030;38.710;2024-02-26T10:57:22;6.13;;;2.60;;
74543;SDS011;63016;55.030;38.710;2024-02-26T10:59:51;6.95;;;2.22;;
74543;SDS011;63016;55.030;38.710;2024-02-26T11:02:21;6.47;;;2.17;;
74543;SDS011;63016;55.030;38.710;2024-02-26T11:04:50;4.70;;;2.08;;
74543;SDS011;63016;55.030;38.710;2024-02-26T11:09:46;6.97;;;2.40;;
74543;SDS011;63016;55.030;38.710;2024-02-26T11:12:17;6.88;;;2.80;;
74543;SDS011;63016;55.030;38.710;2024-02-26T11:14:46;9.05;;;2.15;;
74543;SDS011;63016;55.030;38.710;2024-02-26T11:17:12;8.23;;;2.03;;
74543;SDS011;63016;55.030;38.710;2024-02-26T11:19:41;11.30;;;2.25;;
74543;SDS011;63016;55.030;38.710;2024-02-26T11:22:09;6.70;;;2.40;;
74543;SDS011;63016;55.030;38.710;2024-02-26T11:24:35;5.18;;;1.98;;
74543;SDS011;63016;55.030;38.710;2024-02-26T11:27:06;7.85;;;2.50;;
74543;SDS011;63016;55.030;38.710;2024-02-26T11:29:35;7.50;;;2.25;;
74543;SDS011;63016;55.030;38.710;2024-02-26T11:32:05;6.30;;;2.65;;
74543;SDS011;63016;55.030;38.710;2024-02-26T11:34:31;6.65;;;2.22;;
74543;SDS011;63016;55.030;38.710;2024-02-26T11:36:57;9.23;;;2.60;;
74543;SDS011;63016;55.030;38.710;2024-02-26T11:39:33;6.88;;;2.08;;
74543;SDS011;63016;55.030;38.710;2024-02-26T11:42:07;8.38;;;2.60;;
74543;SDS011;63016;55.030;38.710;2024-02-26T11:44:34;8.25;;;2.55;;
74543;SDS011;63016;55.030;38.710;2024-02-26T11:47:10;9.43;;;2.40;;
74543;SDS011;63016;55.030;38.710;2024-02-26T11:49:37;6.45;;;2.30;;
74543;SDS011;63016;55.030;38.710;2024-02-26T11:52:05;10.50;;;2.45;;
74543;SDS011;63016;55.030;38.710;2024-02-26T11:54:48;11.90;;;3.22;;
74543;SDS011;63016;55.030;38.710;2024-02-26T12:05:14;9.77;;;2.55;;
74543;SDS011;63016;55.030;38.710;2024-02-26T12:07:49;7.70;;;2.67;;
74543;SDS011;63016;55.030;38.710;2024-02-26T12:10:28;7.93;;;2.50;;
74543;SDS011;63016;55.030;38.710;2024-02-26T12:13:10;9.73;;;2.45;;
74543;SDS011;63016;55.030;38.710;2024-02-26T12:15:43;6.50;;;2.38;;
74543;SDS011;63016;55.030;38.710;2024-02-26T12:18:10;7.43;;;2.33;;
74543;SDS011;63016;55.030;38.710;2024-02-26T12:20:59;10.77;;;3.00;;
74543;SDS011;63016;55.030;38.710;2024-02-26T12:23:28;7.80;;;2.25;;
74543;SDS011;63016;55.030;38.710;2024-02-26T12:26:01;8.65;;;2.72;;
74543;SDS011;63016;55.030;38.710;2024-02-26T12:28:29;8.45;;;2.47;;
74543;SDS011;63016;55.030;38.710;2024-02-26T12:30:55;8.30;;;2.42;;
74543;SDS011;63016;55.030;38.710;2024-02-26T12:33:24;5.93;;;2.30;;
74543;SDS011;63016;55.030;38.710;2024-02-26T12:35:51;10.90;;;2.45;;
74543;SDS011;63016;55.030;38.710;2024-02-26T12:38:17;13.75;;;3.38;;
74543;SDS011;63016;55.030;38.710;2024-02-26T12:40:44;13.65;;;2.28;;
74543;SDS011;63016;55.030;38.710;2024-02-26T12:43:10;21.75;;;7.47;;
74543;SDS011;63016;55.030;38.710;2024-02-26T12:45:41;8.35;;;3.72;;
74543;SDS011;63016;55.030;38.710;2024-02-26T12:48:07;8.98;;;3.22;;
74543;SDS011;63016;55.030;38.710;2024-02-26T12:50:32;6.28;;;2.70;;
74543;SDS011;63016;55.030;38.710;2024-02-26T12:52:59;9.13;;;2.75;;
74543;SDS011;63016;55.030;38.710;2024-02-26T12:55:25;9.18;;;3.33;;
74543;SDS011;63016;55.030;38.710;2024-02-26T12:57:51;13.88;;;2.63;;
74543;SDS011;63016;55.030;38.710;2024-02-26T13:00:21;7.40;;;2.20;;
74543;SDS011;63016;55.030;38.710;2024-02-26T13:05:15;8.07;;;2.88;;
74543;SDS011;63016;55.030;38.710;2024-02-26T13:07:43;13.18;;;2.95;;
74543;SDS011;63016;55.030;38.710;2024-02-26T13:10:11;9.60;;;2.55;;
74543;SDS011;63016;55.030;38.710;2024-02-26T13:12:37;7.53;;;2.33;;
74543;SDS011;63016;55.030;38.710;2024-02-26T13:15:15;6.60;;;2.63;;
74543;SDS011;63016;55.030;38.710;2024-02-26T13:17:42;7.32;;;2.75;;
74543;SDS011;63016;55.030;38.710;2024-02-26T13:20:09;6.32;;;2.22;;
74543;SDS011;63016;55.030;38.710;2024-02-26T13:22:38;6.22;;;2.50;;
74543;SDS011;63016;55.030;38.710;2024-02-26T13:25:04;9.68;;;2.83;;
74543;SDS011;63016;55.030;38.710;2024-02-26T13:27:32;5.75;;;2.22;;
74543;SDS011;63016;55.030;38.710;2024-02-26T13:30:05;12.38;;;2.50;;
74543;SDS011;63016;55.030;38.710;2024-02-26T13:32:38;11.07;;;2.22;;
74543;SDS011;63016;55.030;38.710;2024-02-26T13:35:11;10.20;;;2.40;;
74543;SDS011;63016;55.030;38.710;2024-02-26T13:37:38;8.45;;;2.10;;
74543;SDS011;63016;55.030;38.710;2024-02-26T13:40:08;8.20;;;2.28;;
74543;SDS011;63016;55.030;38.710;2024-02-26T13:42:35;7.60;;;2.60;;
74543;SDS011;63016;55.030;38.710;2024-02-26T13:45:01;6.05;;;2.33;;
74543;SDS011;63016;55.030;38.710;2024-02-26T13:47:27;7.78;;;3.47;;
74543;SDS011;63016;55.030;38.710;2024-02-26T13:49:53;11.18;;;2.08;;
74543;SDS011;63016;55.030;38.710;2024-02-26T13:52:18;8.50;;;2.20;;
74543;SDS011;63016;55.030;38.710;2024-02-26T13:54:45;6.88;;;2.10;;
74543;SDS011;63016;55.030;38.710;2024-02-26T13:57:11;11.07;;;2.22;;
74543;SDS011;63016;55.030;38.710;2024-02-26T13:59:37;8.65;;;2.25;;
74543;SDS011;63016;55.030;38.710;2024-02-26T14:02:02;11.13;;;2.92;;
74543;SDS011;63016;55.030;38.710;2024-02-26T14:04:29;7.75;;;1.92;;
74543;SDS011;63016;55.030;38.710;2024-02-26T14:06:54;8.98;;;2.45;;
74543;SDS011;63016;55.030;38.710;2024-02-26T14:09:20;6.97;;;2.05;;
74543;SDS011;63016;55.030;38.710;2024-02-26T14:11:45;5.95;;;2.45;;
74543;SDS011;63016;55.030;38.710;2024-02-26T14:14:11;6.05;;;2.60;;
74543;SDS011;63016;55.030;38.710;2024-02-26T14:16:36;8.23;;;2.00;;
74543;SDS011;63016;55.030;38.710;2024-02-26T14:19:02;8.55;;;2.85;;
74543;SDS011;63016;55.030;38.710;2024-02-26T14:21:28;9.13;;;2.50;;
74543;SDS011;63016;55.030;38.710;2024-02-26T14:23:55;6.70;;;2.42;;
74543;SDS011;63016;55.030;38.710;2024-02-26T14:26:21;7.20;;;2.15;;
74543;SDS011;63016;55.030;38.710;2024-02-26T14:28:47;7.35;;;2.63;;
74543;SDS011;63016;55.030;38.710;2024-02-26T14:31:13;5.28;;;2.17;;
74543;SDS011;63016;55.030;38.710;2024-02-26T14:33:38;5.90;;;2.20;;
74543;SDS011;63016;55.030;38.710;2024-02-26T14:36:07;6.95;;;2.70;;
74543;SDS011;63016;55.030;38.710;2024-02-26T14:38:33;308.73;;;121.10;;
74543;SDS011;63016;55.030;38.710;2024-02-26T14:40:58;314.20;;;142.05;;
74543;SDS011;63016;55.030;38.710;2024-02-26T14:43:24;196.00;;;84.82;;